Time;durP1;ratioP1;P1;durP2;ratioP2;P2;SDS_P1;SDS_P2;PMS_P1;PMS_P2;Temp;Humidity;BMP_temperature;BMP_pressure;BME280_temperature;BME280_humidity;BME280_pressure;Samples;Min_cycle;Max_cycle;Signal;HPM_P1;HPM_P2
2023/03/05 00:00:29;;;;;;;5.23;3.47;;;0.60;99.90;1.10;96560.00;;;;5090674;28;20453;-68
2023/03/05 00:03:18;;;;;;;5.27;4.00;;;0.50;99.90;1.50;96563.00;;;;5090261;28;21009;-68
2023/03/05 00:06:08;;;;;;;5.33;2.93;;;0.50;99.90;1.60;96584.00;;;;5079070;28;20859;-68
2023/03/05 00:08:57;;;;;;;5.23;3.37;;;0.60;99.90;1.30;96587.00;;;;5090893;28;20449;-68
2023/03/05 00:11:46;;;;;;;9.43;3.50;;;0.50;99.90;1.20;96565.00;;;;5078349;28;20425;-68
2023/03/05 00:14:34;;;;;;;9.00;3.77;;;0.50;99.90;1.00;96584.00;;;;5075885;28;20437;-68
2023/03/05 00:17:25;;;;;;;5.87;3.47;;;0.40;99.90;0.90;96583.00;;;;5085977;28;20900;-71
2023/03/05 00:20:14;;;;;;;5.60;3.73;;;0.30;99.90;1.00;96589.00;;;;5089546;28;20435;-69
2023/03/05 00:23:03;;;;;;;8.00;3.53;;;0.20;99.90;0.90;96586.00;;;;5087194;28;20514;-68
2023/03/05 00:25:52;;;;;;;5.37;3.10;;;0.20;99.90;0.70;96579.00;;;;5088740;28;20465;-69
2023/03/05 00:28:40;;;;;;;4.40;3.17;;;0.10;99.90;1.00;96577.00;;;;5076821;28;20429;-69
2023/03/05 00:31:31;;;;;;;4.20;3.53;;;0.10;99.90;1.00;96575.00;;;;5085427;28;20424;-69
2023/03/05 00:34:21;;;;;;;9.93;3.97;;;0.10;99.90;1.10;96567.00;;;;5090404;28;20451;-69
2023/03/05 00:37:10;;;;;;;5.53;3.03;;;0.10;99.90;0.90;96578.00;;;;5090834;28;20414;-69
2023/03/05 00:39:58;;;;;;;4.80;3.13;;;0.10;99.90;0.90;96576.00;;;;5087046;28;20430;-69
2023/03/05 00:42:47;;;;;;;10.43;3.83;;;0.00;99.90;0.70;96564.00;;;;5089599;28;20466;-69
2023/03/05 00:45:36;;;;;;;6.23;4.27;;;0.00;99.90;0.60;96566.00;;;;5087300;28;20612;-69
2023/03/05 00:48:25;;;;;;;5.50;3.90;;;-0.10;99.90;0.50;96558.00;;;;5075058;28;20425;-68
2023/03/05 00:51:15;;;;;;;4.73;3.07;;;-0.20;99.90;0.50;96563.00;;;;5078525;28;20467;-68
2023/03/05 00:54:04;;;;;;;5.23;3.10;;;-0.20;99.90;0.70;96553.00;;;;5080084;28;20910;-68
2023/03/05 00:56:53;;;;;;;6.00;4.57;;;-0.20;99.90;0.50;96559.00;;;;5085212;28;20940;-68
2023/03/05 00:59:42;;;;;;;8.40;3.40;;;-0.20;99.90;0.20;96562.00;;;;5079574;28;20929;-68
2023/03/05 01:02:31;;;;;;;6.77;3.73;;;-0.30;99.90;-0.20;96550.00;;;;5078306;28;20426;-71
2023/03/05 01:05:21;;;;;;;10.00;3.10;;;-0.50;99.90;-0.10;96548.00;;;;5079514;28;20473;-70
2023/03/05 01:08:12;;;;;;;3.37;2.67;;;-0.50;99.90;0.00;96557.00;;;;5084247;28;20432;-70
2023/03/05 01:11:01;;;;;;;5.17;3.33;;;-0.60;99.90;0.20;96557.00;;;;5085805;28;20447;-69
2023/03/05 01:13:49;;;;;;;10.70;5.03;;;-0.60;99.90;0.20;96545.00;;;;5087009;28;20425;-69
2023/03/05 01:16:38;;;;;;;7.17;3.73;;;-0.60;99.90;0.40;96545.00;;;;5084748;28;20837;-68
2023/03/05 01:19:27;;;;;;;4.57;3.87;;;-0.50;99.90;0.10;96551.00;;;;5090488;28;20437;-69
2023/03/05 01:22:16;;;;;;;4.43;3.17;;;-0.50;99.90;0.10;96540.00;;;;5089893;28;20414;-68
2023/03/05 01:25:07;;;;;;;6.80;4.63;;;-0.50;99.90;0.30;96545.00;;;;5089697;28;20499;-68
2023/03/05 01:27:57;;;;;;;5.07;4.03;;;-0.50;99.90;0.50;96551.00;;;;5084488;28;20417;-68
2023/03/05 01:30:45;;;;;;;6.57;3.60;;;-0.40;99.90;0.10;96548.00;;;;5079679;28;20449;-69
2023/03/05 01:33:34;;;;;;;3.77;3.47;;;-0.40;99.90;-0.10;96543.00;;;;5087366;28;20482;-68
2023/03/05 01:36:23;;;;;;;5.13;3.97;;;-0.60;99.90;0.10;96552.00;;;;5089797;28;20519;-69
2023/03/05 01:39:12;;;;;;;6.50;4.20;;;-0.60;99.90;0.50;96554.00;;;;5086244;28;20429;-69
2023/03/05 01:42:03;;;;;;;4.07;3.60;;;-0.60;99.90;0.30;96553.00;;;;5085475;28;20841;-69
2023/03/05 01:45:06;;;;;;;7.00;5.23;;;-0.60;99.90;0.40;96545.00;;;;5084059;28;20453;-69
2023/03/05 01:47:55;;;;;;;4.83;4.07;;;-0.50;99.90;0.20;96554.00;;;;5086614;28;20437;-69
2023/03/05 01:50:43;;;;;;;11.50;4.47;;;-0.50;99.90;0.40;96556.00;;;;5083672;28;20422;-69
2023/03/05 01:53:32;;;;;;;7.00;3.73;;;-0.50;99.90;0.00;96555.00;;;;5081231;28;20440;-69
2023/03/05 01:56:22;;;;;;;5.83;3.83;;;-0.60;99.90;-0.10;96549.00;;;;5074616;28;20437;-69
2023/03/05 01:59:13;;;;;;;7.33;3.57;;;-0.70;99.90;-0.40;96552.00;;;;5078455;28;20434;-71
2023/03/05 02:02:02;;;;;;;5.90;3.87;;;-0.80;99.90;-0.10;96553.00;;;;5079998;28;20478;-69
2023/03/05 02:04:55;;;;;;;12.63;5.53;;;-0.80;99.90;0.00;96553.00;;;;5085442;28;21094;-69
2023/03/05 02:07:44;;;;;;;10.23;4.07;;;-0.80;99.90;0.00;96554.00;;;;5083201;28;20835;-69
2023/03/05 02:10:37;;;;;;;6.90;3.70;;;-0.80;99.90;-0.30;96549.00;;;;5088568;28;20429;-70
2023/03/05 02:13:29;;;;;;;8.37;4.77;;;-0.80;99.90;-0.40;96542.00;;;;5088721;28;20497;-70
2023/03/05 02:16:20;;;;;;;5.03;4.33;;;-0.90;99.90;0.00;96546.00;;;;5087491;28;20465;-70
2023/03/05 02:19:12;;;;;;;7.27;4.20;;;-0.90;99.90;0.00;96549.00;;;;5086521;28;20433;-69
2023/03/05 02:22:02;;;;;;;6.67;4.30;;;-0.90;99.90;-0.30;96544.00;;;;5080969;28;20422;-70
2023/03/05 02:24:51;;;;;;;6.00;3.77;;;-0.90;99.90;-0.40;96532.00;;;;5071566;28;20438;-70
2023/03/05 02:27:43;;;;;;;5.20;4.63;;;-1.00;99.90;-0.40;96537.00;;;;5081847;28;21054;-70
2023/03/05 02:30:32;;;;;;;8.97;5.20;;;-1.00;99.90;-0.40;96534.00;;;;5089361;28;20426;-70
2023/03/05 02:33:22;;;;;;;8.07;4.17;;;-1.00;99.90;-0.40;96520.00;;;;5086526;28;20426;-69
2023/03/05 02:36:11;;;;;;;6.93;5.13;;;-1.00;99.90;-0.20;96527.00;;;;5086416;28;21053;-70
2023/03/05 02:39:01;;;;;;;6.33;4.27;;;-1.00;99.90;-0.20;96531.00;;;;5088093;28;20429;-70
2023/03/05 02:41:50;;;;;;;8.57;5.47;;;-0.90;99.90;-0.30;96527.00;;;;5083019;28;20410;-69
2023/03/05 02:44:38;;;;;;;11.40;4.37;;;-1.00;99.90;-0.40;96521.00;;;;5086206;28;20503;-69
2023/03/05 02:47:27;;;;;;;4.37;3.43;;;-1.00;99.90;-0.40;96538.00;;;;5080774;28;20476;-69
2023/03/05 02:50:16;;;;;;;16.70;5.43;;;-1.00;99.90;-0.40;96522.00;;;;5078957;28;20438;-70
2023/03/05 02:53:06;;;;;;;8.57;5.83;;;-1.00;99.90;-0.40;96516.00;;;;5081117;28;20430;-70
2023/03/05 02:55:56;;;;;;;5.23;3.63;;;-1.00;99.90;-0.80;96518.00;;;;5075706;28;20530;-69
2023/03/05 02:58:45;;;;;;;7.00;5.53;;;-1.10;99.90;-0.40;96518.00;;;;5080138;28;20429;-69
2023/03/05 03:01:33;;;;;;;9.17;5.40;;;-1.10;99.90;-0.20;96518.00;;;;5078709;28;20453;-69
2023/03/05 03:04:22;;;;;;;12.37;5.70;;;-1.10;99.90;-0.30;96513.00;;;;5080784;28;20957;-69
2023/03/05 03:07:11;;;;;;;12.90;6.13;;;-1.30;99.90;-0.30;96524.00;;;;5078764;28;20557;-69
2023/03/05 03:10:00;;;;;;;7.90;5.43;;;-1.10;99.90;-0.30;96505.00;;;;5079140;28;20435;-69
2023/03/05 03:12:50;;;;;;;10.33;6.17;;;-1.10;99.90;-0.30;96505.00;;;;5077504;28;20435;-69
2023/03/05 03:15:39;;;;;;;8.90;6.00;;;-1.10;99.90;-0.50;96497.00;;;;5073121;28;20441;-69
2023/03/05 03:18:28;;;;;;;6.63;5.57;;;-1.20;99.90;-0.50;96506.00;;;;5086116;28;20847;-68
2023/03/05 03:21:23;;;;;;;10.10;6.57;;;-1.20;99.90;-0.50;96519.00;;;;5087171;28;20446;-70
2023/03/05 03:24:11;;;;;;;7.87;6.60;;;-1.30;99.90;-0.80;96494.00;;;;5082431;28;20460;-69
2023/03/05 03:27:00;;;;;;;7.93;5.77;;;-1.30;99.90;-0.60;96505.00;;;;5088945;28;20417;-70
2023/03/05 03:29:51;;;;;;;8.80;6.67;;;-1.30;99.90;-0.40;96498.00;;;;5082978;28;20453;-69
2023/03/05 03:32:40;;;;;;;7.03;5.67;;;-1.30;99.90;-0.60;96502.00;;;;5085875;28;20426;-70
2023/03/05 03:35:28;;;;;;;9.20;5.27;;;-1.20;99.90;-0.50;96499.00;;;;5082897;28;20453;-70
2023/03/05 03:38:17;;;;;;;9.80;6.23;;;-1.30;99.90;-0.80;96508.00;;;;5081746;28;20820;-70
2023/03/05 03:41:07;;;;;;;12.63;7.10;;;-1.20;99.90;-0.70;96501.00;;;;5079708;28;20433;-70
2023/03/05 03:43:56;;;;;;;7.37;5.30;;;-1.30;99.90;-1.00;96500.00;;;;5083348;28;20816;-71
2023/03/05 03:46:48;;;;;;;10.50;6.87;;;-1.40;99.90;-0.70;96493.00;;;;5088557;28;20422;-69
2023/03/05 03:49:36;;;;;;;12.70;5.50;;;-1.40;99.90;-0.50;96498.00;;;;5084947;28;20428;-70
2023/03/05 03:52:26;;;;;;;12.23;7.13;;;-1.40;99.90;-0.40;96498.00;;;;5087611;28;20496;-69
2023/03/05 03:55:14;;;;;;;11.77;6.63;;;-1.40;99.90;-0.60;96493.00;;;;5087005;28;20437;-70
2023/03/05 03:58:03;;;;;;;10.23;5.87;;;-1.30;99.90;-0.90;96489.00;;;;5079356;28;20473;-70
2023/03/05 04:00:52;;;;;;;8.13;5.67;;;-1.40;99.90;-0.50;96493.00;;;;5083358;28;20955;-70
2023/03/05 04:03:42;;;;;;;14.27;7.20;;;-1.40;99.90;-0.50;96493.00;;;;5082508;28;20426;-70
2023/03/05 04:06:31;;;;;;;15.80;7.10;;;-1.40;99.90;-0.40;96488.00;;;;5086863;28;20425;-70
2023/03/05 04:09:20;;;;;;;8.23;5.03;;;-1.40;99.90;-0.50;96485.00;;;;5079971;28;20434;-70
2023/03/05 04:12:10;;;;;;;10.63;6.80;;;-1.30;99.90;-1.20;96464.00;;;;5084472;28;20410;-73
2023/03/05 04:14:58;;;;;;;13.87;6.87;;;-1.40;99.90;-1.10;96465.00;;;;5084689;28;20445;-69
2023/03/05 04:17:47;;;;;;;14.20;5.57;;;-1.50;99.90;-0.70;96471.00;;;;5083482;28;20464;-70
2023/03/05 04:20:37;;;;;;;17.23;6.83;;;-1.50;99.90;-0.70;96456.00;;;;5085261;28;20479;-68
2023/03/05 04:23:26;;;;;;;9.97;6.23;;;-1.40;99.90;-0.50;96470.00;;;;5081054;28;20974;-69
2023/03/05 04:26:15;;;;;;;9.40;6.50;;;-1.30;99.90;-1.00;96466.00;;;;5080506;28;20436;-69
2023/03/05 04:29:04;;;;;;;13.23;6.73;;;-1.30;99.90;-0.70;96470.00;;;;5081536;28;20433;-69
2023/03/05 04:31:53;;;;;;;12.80;7.93;;;-1.40;99.90;-0.90;96466.00;;;;5083784;28;20429;-69
2023/03/05 04:34:41;;;;;;;16.43;7.43;;;-1.40;99.90;-0.90;96469.00;;;;5082824;28;20446;-69
2023/03/05 04:37:32;;;;;;;7.73;6.67;;;-1.40;99.90;-1.00;96462.00;;;;5084289;28;20461;-71
2023/03/05 04:40:21;;;;;;;12.30;6.10;;;-1.60;99.90;-1.10;96453.00;;;;5085101;28;20426;-70
2023/03/05 04:43:10;;;;;;;10.03;5.33;;;-1.60;99.90;-1.40;96457.00;;;;5089343;28;21266;-68
2023/03/05 04:45:59;;;;;;;10.10;7.30;;;-1.60;99.90;-1.00;96455.00;;;;5082278;28;20429;-68
2023/03/05 04:48:47;;;;;;;12.60;7.07;;;-1.60;99.90;-0.90;96458.00;;;;5082065;28;20438;-69
2023/03/05 04:51:36;;;;;;;10.03;7.20;;;-1.60;99.90;-1.10;96459.00;;;;5082044;28;20433;-69
2023/03/05 04:54:27;;;;;;;12.70;7.10;;;-1.60;99.90;-0.90;96463.00;;;;5086606;28;20454;-70
2023/03/05 04:57:15;;;;;;;7.80;6.63;;;-1.60;99.90;-1.00;96456.00;;;;5085524;28;20461;-69
2023/03/05 05:00:12;;;;;;;11.90;7.97;;;-1.60;99.90;-0.60;96445.00;;;;5082585;28;20566;-70
2023/03/05 05:03:01;;;;;;;9.03;6.27;;;-1.60;99.90;-1.00;96465.00;;;;5079561;28;20429;-71
2023/03/05 05:05:55;;;;;;;13.23;8.10;;;-1.50;99.90;-1.00;96455.00;;;;5084784;28;20445;-69
2023/03/05 05:08:44;;;;;;;9.83;6.37;;;-1.60;99.90;-1.00;96449.00;;;;5083655;28;20422;-71
2023/03/05 05:11:34;;;;;;;13.60;7.93;;;-1.60;99.90;-1.20;96441.00;;;;5086760;28;20467;-70
2023/03/05 05:14:23;;;;;;;8.40;6.57;;;-1.60;99.90;-0.70;96444.00;;;;5089046;28;20445;-70
2023/03/05 05:17:12;;;;;;;9.13;6.70;;;-1.60;99.90;-0.70;96448.00;;;;5089614;28;20465;-70
2023/03/05 05:20:01;;;;;;;5.10;3.57;;;-1.50;99.90;-1.40;96458.00;;;;5091164;28;20421;-72
2023/03/05 05:22:50;;;;;;;8.93;6.73;;;-1.60;99.90;-1.30;96444.00;;;;5088191;28;20437;-69
2023/03/05 05:25:39;;;;;;;14.07;8.30;;;-1.70;99.90;-0.90;96454.00;;;;5085804;28;20441;-70
2023/03/05 05:28:29;;;;;;;15.03;7.10;;;-1.60;99.90;-0.70;96449.00;;;;5089321;28;20445;-69
2023/03/05 05:31:19;;;;;;;12.10;7.17;;;-1.40;99.90;-0.80;96447.00;;;;5085997;28;20426;-70
2023/03/05 05:34:08;;;;;;;12.00;8.10;;;-1.50;99.90;-1.00;96445.00;;;;5090588;28;21376;-69
2023/03/05 05:36:56;;;;;;;11.03;7.97;;;-1.50;99.90;-0.70;96438.00;;;;5092384;28;20948;-70
2023/03/05 05:39:48;;;;;;;11.23;7.53;;;-1.50;99.90;-0.80;96460.00;;;;5085954;28;20432;-69
2023/03/05 05:42:38;;;;;;;25.07;14.33;;;-1.50;99.90;-0.80;96463.00;;;;5085190;28;20859;-69
2023/03/05 05:45:28;;;;;;;10.37;6.87;;;-1.50;99.90;-0.70;96457.00;;;;5087910;28;20441;-70
2023/03/05 05:48:17;;;;;;;9.53;6.87;;;-1.50;99.90;-0.70;96460.00;;;;5086549;28;20936;-70
2023/03/05 05:51:07;;;;;;;12.83;7.83;;;-1.50;99.90;-1.00;96454.00;;;;5087316;28;20426;-69
2023/03/05 05:53:56;;;;;;;19.13;7.47;;;-1.50;99.90;-1.00;96463.00;;;;5088324;28;20441;-70
2023/03/05 05:56:44;;;;;;;14.00;7.80;;;-1.60;99.90;-0.70;96465.00;;;;5088882;28;20430;-70
2023/03/05 05:59:33;;;;;;;8.50;7.53;;;-1.50;99.90;-0.50;96460.00;;;;5079894;28;20425;-70
2023/03/05 06:02:24;;;;;;;11.90;6.97;;;-1.50;99.90;-0.80;96459.00;;;;5087330;28;20425;-70
2023/03/05 06:05:14;;;;;;;10.90;8.20;;;-1.40;99.90;-0.90;96459.00;;;;5089743;28;20448;-71
2023/03/05 06:08:03;;;;;;;10.80;8.87;;;-1.50;99.90;-0.60;96468.00;;;;5089520;28;20434;-71
2023/03/05 06:10:55;;;;;;;11.77;8.30;;;-1.50;99.90;-0.20;96460.00;;;;5075570;28;20448;-70
2023/03/05 06:13:45;;;;;;;12.43;8.03;;;-1.40;99.90;-0.50;96474.00;;;;5082029;28;20423;-71
2023/03/05 06:16:33;;;;;;;8.40;7.60;;;-1.30;99.90;-0.40;96460.00;;;;5087907;28;20438;-71
2023/03/05 06:19:24;;;;;;;8.43;6.47;;;-1.30;99.90;-0.80;96452.00;;;;5082747;28;20838;-71
2023/03/05 06:22:12;;;;;;;9.93;8.00;;;-1.30;99.90;-0.50;96470.00;;;;5079640;28;20441;-70
2023/03/05 06:25:01;;;;;;;13.60;9.63;;;-1.30;99.90;-0.40;96462.00;;;;5084272;28;20955;-70
2023/03/05 06:27:51;;;;;;;11.23;8.93;;;-1.20;99.90;-0.70;96472.00;;;;5084774;28;20450;-72
2023/03/05 06:30:40;;;;;;;12.57;9.13;;;-1.10;99.90;-0.50;96467.00;;;;5074839;28;20441;-70
2023/03/05 06:33:29;;;;;;;17.10;9.13;;;-1.00;99.90;0.00;96465.00;;;;5080419;28;20429;-71
2023/03/05 06:36:23;;;;;;;16.77;9.13;;;-1.10;99.90;0.00;96474.00;;;;5079780;28;20445;-71
2023/03/05 06:39:11;;;;;;;11.40;8.10;;;-0.90;99.90;0.10;96474.00;;;;5083205;28;20458;-71
2023/03/05 06:42:00;;;;;;;15.10;8.70;;;-0.80;99.90;0.30;96480.00;;;;5087845;28;20803;-70
2023/03/05 06:44:49;;;;;;;12.90;7.47;;;-0.80;99.90;0.10;96461.00;;;;5094515;28;20448;-71
2023/03/05 06:47:38;;;;;;;15.67;8.63;;;-0.70;99.90;0.10;96458.00;;;;5089133;28;20413;-71
2023/03/05 06:50:26;;;;;;;16.20;8.07;;;-0.70;99.90;0.40;96469.00;;;;5090809;28;20411;-71
2023/03/05 06:53:16;;;;;;;12.10;7.80;;;-0.70;99.90;0.40;96465.00;;;;5086856;28;20433;-71
2023/03/05 06:56:06;;;;;;;13.50;8.53;;;-0.60;99.90;0.00;96462.00;;;;5090609;28;20422;-72
2023/03/05 06:58:55;;;;;;;12.40;8.50;;;-0.60;99.90;0.00;96464.00;;;;5085084;28;21015;-70
2023/03/05 07:01:43;;;;;;;12.00;9.17;;;-0.60;99.90;0.30;96464.00;;;;5086626;28;20973;-70
2023/03/05 07:04:32;;;;;;;15.63;9.50;;;-0.50;99.90;0.60;96480.00;;;;5088429;28;20496;-70
2023/03/05 07:07:21;;;;;;;13.03;8.60;;;-0.40;99.90;0.80;96468.00;;;;5077820;28;20451;-70
2023/03/05 07:10:12;;;;;;;13.20;8.57;;;-0.30;99.90;0.90;96468.00;;;;5070441;28;20426;-70
2023/03/05 07:13:01;;;;;;;10.90;8.97;;;-0.20;99.90;1.30;96463.00;;;;5078354;28;20826;-69
2023/03/05 07:15:50;;;;;;;14.37;9.53;;;0.00;99.90;1.60;96474.00;;;;5080964;28;20483;-69
2023/03/05 07:18:38;;;;;;;10.07;6.93;;;0.10;99.90;1.40;96464.00;;;;5091409;28;20465;-69
2023/03/05 07:21:30;;;;;;;12.80;6.87;;;0.30;99.90;1.80;96465.00;;;;5086978;28;20425;-70
2023/03/05 07:24:19;;;;;;;13.70;8.07;;;0.50;99.90;2.00;96458.00;;;;5087098;28;20503;-70
2023/03/05 07:27:09;;;;;;;22.83;10.03;;;0.70;99.90;1.80;96470.00;;;;5092257;28;20432;-70
2023/03/05 07:29:58;;;;;;;13.83;9.80;;;0.80;99.90;1.80;96469.00;;;;5078004;28;20445;-70
2023/03/05 07:32:47;;;;;;;13.33;8.97;;;0.80;99.90;2.30;96462.00;;;;5089729;28;20425;-71
2023/03/05 07:35:41;;;;;;;14.17;10.03;;;1.00;99.90;2.60;96466.00;;;;5082197;28;20842;-69
2023/03/05 07:38:29;;;;;;;14.47;10.17;;;1.20;99.90;2.80;96464.00;;;;5076737;28;20475;-70
2023/03/05 07:41:22;;;;;;;18.97;8.13;;;1.40;99.90;2.80;96471.00;;;;5081585;28;20438;-69
2023/03/05 07:44:12;;;;;;;11.60;8.63;;;1.70;99.90;3.20;96449.00;;;;5072096;28;20840;-70
2023/03/05 07:47:01;;;;;;;11.20;7.73;;;1.80;99.90;3.30;96452.00;;;;5071626;28;20505;-69
2023/03/05 07:49:50;;;;;;;16.60;9.80;;;2.00;99.90;3.20;96449.00;;;;5076716;28;20482;-70
2023/03/05 07:52:38;;;;;;;11.70;8.87;;;2.20;99.90;3.60;96448.00;;;;5081852;28;20445;-71
2023/03/05 07:55:27;;;;;;;13.83;9.37;;;2.40;99.90;4.10;96448.00;;;;5080715;28;20972;-70
2023/03/05 07:58:17;;;;;;;18.23;10.37;;;2.60;99.90;4.00;96444.00;;;;5082378;28;20433;-70
2023/03/05 08:01:15;;;;;;;17.93;12.00;;;2.70;99.90;4.50;96442.00;;;;5073439;28;20427;-70
2023/03/05 08:04:05;;;;;;;17.67;12.67;;;3.00;99.90;5.00;96437.00;;;;5084249;28;21274;-69
2023/03/05 08:06:54;;;;;;;19.93;12.87;;;3.20;99.90;5.40;96452.00;;;;5080365;28;20425;-70
2023/03/05 08:09:42;;;;;;;20.10;11.87;;;3.60;99.90;5.30;96452.00;;;;5078087;28;20430;-70
2023/03/05 08:12:31;;;;;;;21.83;11.83;;;3.70;99.90;5.40;96441.00;;;;5072464;28;20929;-70
2023/03/05 08:15:20;;;;;;;17.90;12.10;;;3.90;99.90;5.70;96448.00;;;;5072816;28;20461;-71
2023/03/05 08:18:12;;;;;;;22.13;12.30;;;4.00;99.90;5.80;96451.00;;;;5076902;28;20453;-71
2023/03/05 08:21:02;;;;;;;19.33;13.57;;;4.20;99.90;5.60;96443.00;;;;5082600;28;20196;-70
2023/03/05 08:23:50;;;;;;;15.47;11.40;;;4.20;99.90;6.00;96425.00;;;;5082031;28;20438;-71
2023/03/05 08:26:40;;;;;;;22.03;13.07;;;4.30;99.90;5.90;96435.00;;;;5087745;28;20218;-71
2023/03/05 08:29:29;;;;;;;22.93;14.37;;;4.50;99.90;6.10;96430.00;;;;5083941;28;20863;-71
2023/03/05 08:32:18;;;;;;;18.70;12.07;;;4.60;99.90;6.10;96436.00;;;;5089330;28;20716;-71
2023/03/05 08:35:10;;;;;;;21.10;12.93;;;4.60;99.90;6.20;96440.00;;;;5087653;28;20230;-71
2023/03/05 08:37:58;;;;;;;23.33;12.67;;;4.70;99.90;6.30;96421.00;;;;5083599;28;20210;-71
2023/03/05 08:40:48;;;;;;;19.00;12.83;;;4.80;99.90;6.20;96422.00;;;;5097587;28;20210;-70
2023/03/05 08:43:38;;;;;;;18.87;12.90;;;4.90;99.90;6.40;96425.00;;;;5090297;28;20199;-69
2023/03/05 08:46:27;;;;;;;19.17;12.83;;;5.00;99.90;6.80;96425.00;;;;5081964;28;20211;-69
2023/03/05 08:49:15;;;;;;;15.33;10.83;;;5.20;99.90;7.10;96422.00;;;;5087050;28;20197;-69
2023/03/05 08:52:06;;;;;;;21.60;11.67;;;5.30;99.90;7.40;96428.00;;;;5087349;28;20577;-69
2023/03/05 08:54:55;;;;;;;18.53;13.20;;;5.50;99.90;7.50;96422.00;;;;5081886;28;20219;-69
2023/03/05 08:57:44;;;;;;;24.40;11.83;;;5.60;99.90;7.60;96427.00;;;;5086387;28;20210;-69
2023/03/05 09:00:32;;;;;;;15.73;10.77;;;5.80;99.90;7.80;96421.00;;;;5087471;28;20211;-69
2023/03/05 09:03:21;;;;;;;18.70;12.37;;;5.90;99.90;7.90;96423.00;;;;5092806;28;20210;-69
2023/03/05 09:06:12;;;;;;;18.10;12.73;;;6.10;99.90;8.20;96421.00;;;;5094783;28;20198;-68
2023/03/05 09:09:02;;;;;;;24.53;14.40;;;6.20;99.90;8.50;96430.00;;;;5088049;28;20207;-68
2023/03/05 09:11:52;;;;;;;22.00;13.27;;;6.40;99.90;8.80;96416.00;;;;5094765;28;20198;-69
2023/03/05 09:14:41;;;;;;;20.67;14.07;;;6.70;99.90;9.00;96416.00;;;;5081573;28;20223;-69
2023/03/05 09:17:29;;;;;;;22.17;12.90;;;6.90;99.90;9.10;96419.00;;;;5087474;28;20200;-69
2023/03/05 09:20:19;;;;;;;22.73;14.33;;;7.10;99.90;9.10;96417.00;;;;5087107;28;20222;-70
2023/03/05 09:23:08;;;;;;;24.50;14.60;;;7.20;99.90;9.50;96409.00;;;;5094117;28;20562;-69
2023/03/05 09:25:58;;;;;;;21.87;14.50;;;7.40;99.90;9.90;96415.00;;;;5090346;28;20218;-69
2023/03/05 09:28:48;;;;;;;19.77;13.47;;;7.70;99.90;10.00;96416.00;;;;5091488;28;20199;-69
2023/03/05 09:31:37;;;;;;;18.53;13.83;;;7.90;99.90;9.50;96412.00;;;;5092789;28;20227;-69
2023/03/05 09:34:26;;;;;;;17.63;11.70;;;8.00;99.90;9.60;96406.00;;;;5086489;28;20229;-70
2023/03/05 09:37:14;;;;;;;28.17;21.70;;;7.90;99.90;9.80;96416.00;;;;5075081;28;20203;-69
2023/03/05 09:40:04;;;;;;;23.73;14.03;;;8.00;99.90;9.80;96405.00;;;;5092886;28;20223;-69
2023/03/05 09:43:06;;;;;;;18.90;14.20;;;8.00;99.90;9.90;96404.00;;;;5081883;28;20203;-69
2023/03/05 09:46:18;;;;;;;19.90;11.37;;;8.00;99.90;9.70;96393.00;;;;5086543;28;20223;-68
2023/03/05 09:49:17;;;;;;;16.20;11.87;;;8.10;99.20;9.90;96400.00;;;;5079705;28;20206;-68
2023/03/05 09:52:15;;;;;;;19.27;12.63;;;8.10;99.00;9.90;96405.00;;;;5077649;28;20200;-69
2023/03/05 09:55:05;;;;;;;15.63;10.00;;;8.20;98.60;10.10;96391.00;;;;5087714;28;20226;-68
2023/03/05 09:58:04;;;;;;;18.00;12.17;;;8.20;98.00;10.00;96392.00;;;;5080771;28;20187;-68
2023/03/05 10:00:58;;;;;;;22.23;12.43;;;8.30;96.90;10.10;96393.00;;;;5081502;28;20716;-68
2023/03/05 10:03:56;;;;;;;20.50;11.53;;;8.40;96.10;10.10;96385.00;;;;5081722;28;20222;-69
2023/03/05 10:06:54;;;;;;;20.90;12.03;;;8.40;95.80;10.10;96380.00;;;;5087220;28;20724;-69
2023/03/05 10:09:50;;;;;;;18.40;10.33;;;8.40;94.70;10.50;96378.00;;;;5086298;28;20196;-69
2023/03/05 10:12:43;;;;;;;22.57;12.40;;;8.50;95.00;10.70;96377.00;;;;5084256;28;20281;-68
2023/03/05 10:15:43;;;;;;;15.47;11.10;;;8.70;94.70;10.80;96374.00;;;;5084200;28;20220;-69
2023/03/05 10:18:40;;;;;;;24.50;12.83;;;8.90;94.00;11.20;96365.00;;;;5077424;28;20207;-69
2023/03/05 10:21:33;;;;;;;16.03;10.47;;;9.10;94.10;11.40;96374.00;;;;5080187;28;20223;-69
2023/03/05 10:24:30;;;;;;;17.40;10.00;;;9.30;93.00;11.40;96362.00;;;;5075960;28;20226;-69
2023/03/05 10:27:33;;;;;;;16.90;12.40;;;9.40;92.90;11.20;96366.00;;;;5081916;28;20192;-69
2023/03/05 10:30:45;;;;;;;16.37;11.63;;;9.50;92.30;11.30;96362.00;;;;5078929;28;20195;-68
2023/03/05 10:33:43;;;;;;;17.73;12.30;;;9.60;91.80;11.60;96360.00;;;;5083082;28;20206;-70
2023/03/05 10:36:48;;;;;;;18.33;11.07;;;9.70;91.60;11.70;96353.00;;;;5085315;28;20210;-68
2023/03/05 10:39:49;;;;;;;17.57;11.67;;;9.70;91.40;11.90;96352.00;;;;5083315;28;20385;-68
2023/03/05 10:42:48;;;;;;;15.83;11.23;;;9.90;91.20;11.70;96352.00;;;;5085361;28;20674;-69
2023/03/05 10:45:42;;;;;;;21.40;13.10;;;10.00;90.40;12.30;96348.00;;;;5083662;28;20215;-68
2023/03/05 10:48:38;;;;;;;21.57;10.90;;;10.20;89.20;12.40;96337.00;;;;5086159;28;20215;-69
2023/03/05 10:51:35;;;;;;;18.17;10.63;;;10.30;89.40;12.20;96338.00;;;;5092754;28;20195;-68
2023/03/05 10:54:28;;;;;;;24.43;11.43;;;10.40;88.60;11.80;96319.00;;;;5093151;28;20218;-69
2023/03/05 10:57:21;;;;;;;21.53;11.33;;;10.40;84.20;11.70;96315.00;;;;5084578;28;20207;-68
2023/03/05 11:00:19;;;;;;;17.17;10.73;;;10.30;83.80;12.70;96299.00;;;;5082551;28;20227;-68
2023/03/05 11:03:11;;;;;;;14.70;10.23;;;10.50;84.70;12.50;96305.00;;;;5083091;28;20330;-68
2023/03/05 11:06:02;;;;;;;16.20;10.67;;;10.60;83.30;11.60;96300.00;;;;5081918;28;20212;-68
2023/03/05 11:08:51;;;;;;;14.00;9.87;;;10.50;80.00;12.30;96262.00;;;;5081611;28;20192;-69
2023/03/05 11:11:40;;;;;;;15.70;10.70;;;10.50;78.40;11.40;96276.00;;;;5088872;28;20207;-68
2023/03/05 11:14:32;;;;;;;19.53;10.27;;;10.60;77.10;12.00;96285.00;;;;5079280;28;20230;-69
2023/03/05 11:17:32;;;;;;;18.67;11.27;;;10.50;77.90;12.30;96288.00;;;;5084239;28;20215;-68
2023/03/05 11:20:34;;;;;;;16.53;9.67;;;10.50;78.10;12.40;96284.00;;;;5084594;28;20219;-69
2023/03/05 11:23:25;;;;;;;17.10;9.67;;;10.60;78.20;12.60;96274.00;;;;5085073;28;20210;-69
2023/03/05 11:26:22;;;;;;;17.57;11.67;;;10.60;78.30;12.40;96269.00;;;;5091737;28;20206;-69
2023/03/05 11:29:20;;;;;;;21.33;10.87;;;10.60;76.60;12.90;96262.00;;;;5095806;28;20250;-69
2023/03/05 11:32:20;;;;;;;13.37;9.03;;;10.70;76.40;13.70;96257.00;;;;5092180;28;20207;-71
2023/03/05 11:35:31;;;;;;;18.50;10.57;;;11.10;77.10;14.10;96255.00;;;;5080899;28;20218;-69
2023/03/05 11:38:23;;;;;;;13.50;10.13;;;11.50;76.50;13.90;96242.00;;;;5083925;28;20207;-69
2023/03/05 11:41:13;;;;;;;14.43;9.10;;;11.80;75.10;14.00;96235.00;;;;5079315;28;20219;-70
2023/03/05 11:44:05;;;;;;;17.07;11.93;;;11.90;74.30;14.00;96235.00;;;;5081494;28;20238;-70
2023/03/05 11:46:59;;;;;;;14.40;9.17;;;12.00;73.60;14.10;96235.00;;;;5081467;28;20212;-70
2023/03/05 11:49:54;;;;;;;15.67;10.13;;;12.20;72.70;14.50;96228.00;;;;5079420;28;20203;-69
2023/03/05 11:52:48;;;;;;;15.43;9.83;;;12.30;71.50;14.60;96207.00;;;;5079204;28;20717;-69
2023/03/05 11:55:41;;;;;;;12.03;8.93;;;12.50;70.80;15.40;96207.00;;;;5076973;28;20219;-70
2023/03/05 11:58:36;;;;;;;12.27;10.00;;;12.80;70.20;14.50;96198.00;;;;5078960;28;20207;-70
2023/03/05 12:01:29;;;;;;;16.10;9.10;;;12.80;67.00;14.90;96189.00;;;;5077177;28;20694;-69
2023/03/05 12:04:19;;;;;;;14.17;10.23;;;13.00;68.30;16.10;96184.00;;;;5074411;28;20231;-69
2023/03/05 12:07:13;;;;;;;13.23;9.53;;;13.40;68.90;15.60;96194.00;;;;5075229;28;20195;-70
2023/03/05 12:10:05;;;;;;;18.10;10.10;;;13.70;64.70;16.00;96176.00;;;;5081440;28;20552;-70
2023/03/05 12:13:03;;;;;;;13.80;9.83;;;13.90;62.50;16.20;96169.00;;;;5078462;28;20226;-70
2023/03/05 12:16:06;;;;;;;14.30;9.63;;;14.00;62.60;16.80;96175.00;;;;5077781;28;20220;-70
2023/03/05 12:19:19;;;;;;;15.50;9.47;;;14.30;61.30;17.30;96166.00;;;;5077015;28;20264;-70
2023/03/05 12:22:19;;;;;;;15.07;9.47;;;14.70;60.30;16.90;96142.00;;;;5082094;28;20567;-70
2023/03/05 12:25:27;;;;;;;13.87;9.60;;;15.00;57.50;15.60;96126.00;;;;5075648;28;20226;-70
2023/03/05 12:28:38;;;;;;;16.00;10.17;;;15.10;56.10;17.60;96174.00;;;;5078473;28;20195;-70
2023/03/05 12:31:37;;;;;;;13.63;9.23;;;15.30;56.70;16.50;96145.00;;;;5076388;28;20230;-69
2023/03/05 12:34:47;;;;;;;13.30;8.80;;;15.30;55.40;14.70;96111.00;;;;5080262;28;20219;-70
2023/03/05 12:38:03;;;;;;;14.57;9.47;;;14.90;54.10;15.20;96112.00;;;;5073750;28;20207;-69